createdAt,value
2022-10-06T00:02:08.870Z,101634.34
2022-10-06T00:04:38.662Z,101644.81
2022-10-06T00:07:08.404Z,101650.03
2022-10-06T00:09:38.081Z,101659.59
2022-10-06T00:12:09.150Z,101663.97
2022-10-06T00:14:41.484Z,101680.66
2022-10-06T00:17:11.222Z,101690.28
2022-10-06T00:19:40.918Z,101691.97
2022-10-06T00:22:10.670Z,101695.41
2022-10-06T00:24:40.389Z,101701.56
2022-10-06T00:27:10.114Z,101702.38
2022-10-06T00:29:42.548Z,101706.75
2022-10-06T00:32:12.749Z,101710.19
2022-10-06T00:34:44.217Z,101708.41
2022-10-06T00:37:13.978Z,101717.19
2022-10-06T00:39:43.970Z,101709.25
2022-10-06T00:42:24.861Z,101724.19
2022-10-06T00:44:57.822Z,101717.03
2022-10-06T00:47:29.916Z,101730.19
2022-10-06T00:50:00.125Z,101729.31
2022-10-06T00:52:33.353Z,101743.34
2022-10-06T00:55:04.313Z,101746.78
2022-10-06T00:57:34.092Z,101746.75
2022-10-06T01:00:07.825Z,101751.97
2022-10-06T01:02:42.838Z,101749.25
2022-10-06T01:05:18.778Z,101758.97
2022-10-06T01:07:48.498Z,101770.41
2022-10-06T01:10:18.260Z,101767.69
2022-10-06T01:12:48.271Z,101773.91
2022-10-06T01:15:21.642Z,101785.38
2022-10-06T01:17:55.941Z,101775.63
2022-10-06T01:20:26.343Z,101779.19
2022-10-06T01:23:05.246Z,101785.38
2022-10-06T01:25:37.262Z,101787.94
2022-10-06T01:28:09.452Z,101786.06
2022-10-06T01:30:44.411Z,101799.28
2022-10-06T01:33:14.591Z,101801.81
2022-10-06T01:35:44.442Z,101819.47
2022-10-06T01:38:17.119Z,101811.50
2022-10-06T01:40:47.191Z,101809.69
2022-10-06T01:43:17.335Z,101817.56
2022-10-06T01:45:47.674Z,101828.94
2022-10-06T01:48:17.379Z,101847.44
2022-10-06T01:50:47.104Z,101843.91
2022-10-06T01:53:19.631Z,101850.03
2022-10-06T01:55:49.396Z,101864.97
2022-10-06T01:58:19.416Z,101864.94
2022-10-06T02:00:50.994Z,101873.69
2022-10-06T02:03:20.844Z,101874.50
2022-10-06T02:05:50.664Z,101874.50
2022-10-06T02:08:22.970Z,101885.91
2022-10-06T02:10:52.661Z,101877.91
2022-10-06T02:13:23.581Z,101882.25
2022-10-06T02:15:53.678Z,101882.25
2022-10-06T02:18:23.433Z,101879.44
2022-10-06T02:20:53.231Z,101890.03
2022-10-06T02:23:25.572Z,101895.16
2022-10-06T02:26:01.327Z,101903.06
2022-10-06T02:28:31.800Z,101903.88
2022-10-06T02:31:04.188Z,101909.16
2022-10-06T02:33:34.502Z,101910.91
2022-10-06T02:36:04.694Z,101925.88
2022-10-06T02:38:37.262Z,101936.47
2022-10-06T02:41:07.423Z,101937.25
2022-10-06T02:43:37.907Z,101934.47
2022-10-06T02:46:10.556Z,101944.00
2022-10-06T02:48:40.830Z,101947.44
2022-10-06T02:51:13.729Z,101956.09
2022-10-06T02:53:46.911Z,101969.25
2022-10-06T02:56:19.064Z,101963.00
2022-10-06T02:58:50.180Z,101969.13
2022-10-06T03:01:22.478Z,101975.19
2022-10-06T03:03:52.260Z,101975.06
2022-10-06T03:06:26.597Z,101986.53
2022-10-06T03:09:01.130Z,101989.09
2022-10-06T03:11:32.764Z,101995.09
2022-10-06T03:14:02.752Z,102004.69
2022-10-06T03:16:34.729Z,102015.25
2022-10-06T03:19:05.260Z,102017.81
2022-10-06T03:21:38.400Z,102016.84
2022-10-06T03:24:11.006Z,102015.94
2022-10-06T03:26:43.006Z,102028.25
2022-10-06T03:29:13.608Z,102027.34
2022-10-06T03:31:43.678Z,102021.19
2022-10-06T03:34:13.650Z,102022.84
2022-10-06T03:36:44.242Z,102023.66
2022-10-06T03:39:16.577Z,102028.06
2022-10-06T03:41:46.434Z,102039.47
2022-10-06T03:44:16.460Z,102039.34
2022-10-06T03:46:46.327Z,102045.44
2022-10-06T03:49:16.095Z,102050.66
2022-10-06T03:51:46.423Z,102056.72
2022-10-06T03:54:18.744Z,102077.78
2022-10-06T03:56:49.306Z,102076.81
2022-10-06T03:59:19.714Z,102073.06
2022-10-06T04:01:50.864Z,102079.13
2022-10-06T04:04:20.600Z,102084.41
2022-10-06T04:06:50.359Z,102084.41
2022-10-06T04:09:22.708Z,102081.84
2022-10-06T04:11:52.694Z,102082.78
2022-10-06T04:14:22.449Z,102083.75
2022-10-06T04:16:53.537Z,102089.03
2022-10-06T04:19:23.257Z,102094.31
2022-10-06T04:21:52.980Z,102104.06
2022-10-06T04:24:25.548Z,102105.66
2022-10-06T04:27:15.390Z,102110.88
2022-10-06T04:29:45.683Z,102112.59
2022-10-06T04:32:16.012Z,102123.13
2022-10-06T04:34:45.738Z,102124.09
2022-10-06T04:37:15.516Z,102124.09
2022-10-06T04:39:48.181Z,102121.50
2022-10-06T04:42:17.941Z,102126.78
2022-10-06T04:44:47.651Z,102133.88
2022-10-06T04:47:17.410Z,102145.22
2022-10-06T04:49:47.123Z,102148.69
2022-10-06T04:52:16.879Z,102155.78
2022-10-06T04:54:49.237Z,102157.44
2022-10-06T04:57:18.969Z,102164.53
2022-10-06T05:00:06.793Z,102162.00
2022-10-06T05:02:39.186Z,102167.38
2022-10-06T05:05:09.941Z,102170.00
2022-10-06T05:07:39.704Z,102176.97
2022-10-06T05:10:12.346Z,102188.38
2022-10-06T05:12:42.113Z,102187.47
2022-10-06T05:15:13.077Z,102194.47
2022-10-06T05:17:42.816Z,102205.03
2022-10-06T05:20:13.853Z,102199.69
2022-10-06T05:22:43.577Z,102209.28
2022-10-06T05:25:16.018Z,102216.34
2022-10-06T05:27:46.161Z,102218.09
2022-10-06T05:30:16.036Z,102224.22
2022-10-06T05:32:50.585Z,102226.88
2022-10-06T05:35:21.447Z,102222.47
2022-10-06T05:37:51.172Z,102236.56
2022-10-06T05:40:23.918Z,102238.47
2022-10-06T05:42:53.668Z,102250.75
2022-10-06T05:45:23.405Z,102254.25
2022-10-06T05:47:53.254Z,102254.25
2022-10-06T05:50:23.751Z,102266.59
2022-10-06T05:52:53.470Z,102269.25
2022-10-06T05:55:26.501Z,102269.25
2022-10-06T05:57:57.747Z,102272.78
2022-10-06T06:00:27.743Z,102272.78
2022-10-06T06:02:57.562Z,102277.25
2022-10-06T06:05:27.326Z,102287.81
2022-10-06T06:07:57.073Z,102294.06
2022-10-06T06:10:29.413Z,102288.78
2022-10-06T06:12:59.182Z,102301.22
2022-10-06T06:15:41.314Z,102303.03
2022-10-06T06:18:11.073Z,102312.84
2022-10-06T06:20:40.779Z,102309.34
2022-10-06T06:23:10.528Z,102313.75
2022-10-06T06:25:44.395Z,102312.84
2022-10-06T06:28:14.205Z,102316.31
2022-10-06T06:30:44.120Z,102329.44
2022-10-06T06:33:13.876Z,102329.44
2022-10-06T06:35:44.185Z,102326.72
2022-10-06T06:38:14.191Z,102329.38
2022-10-06T06:40:46.627Z,102333.84
2022-10-06T06:43:16.325Z,102347.09
2022-10-06T06:45:46.159Z,102346.28
2022-10-06T06:48:18.435Z,102352.53
2022-10-06T06:50:48.793Z,102358.78
2022-10-06T06:53:18.522Z,102361.44
2022-10-06T06:55:54.839Z,102362.31
2022-10-06T06:58:25.098Z,102368.59
2022-10-06T07:00:55.116Z,102366.88
2022-10-06T07:03:55.636Z,102377.50
2022-10-06T07:06:17.348Z,102377.50
2022-10-06T07:08:49.632Z,102382.03
2022-10-06T07:11:23.599Z,102395.38
2022-10-06T07:13:55.736Z,102395.38
2022-10-06T07:16:38.931Z,102395.53
2022-10-06T07:19:24.787Z,102406.31
2022-10-06T07:22:08.616Z,102407.31
2022-10-06T07:24:50.765Z,102413.69
2022-10-06T07:27:23.208Z,102416.50
2022-10-06T07:29:56.014Z,102421.97
2022-10-06T07:32:27.877Z,102425.66
2022-10-06T07:34:58.433Z,102431.03
2022-10-06T07:37:28.979Z,102440.88
2022-10-06T07:39:59.062Z,102446.34
2022-10-06T07:42:31.525Z,102442.94
2022-10-06T07:45:13.675Z,102458.19
2022-10-06T07:47:43.480Z,102463.59
2022-10-06T07:50:13.306Z,102462.00
2022-10-06T07:52:45.238Z,102466.59
2022-10-06T07:55:17.861Z,102462.34
2022-10-06T07:57:51.597Z,102472.34
2022-10-06T08:00:23.299Z,102473.44
2022-10-06T08:03:07.581Z,102471.91
2022-10-06T08:05:41.941Z,102473.16
2022-10-06T08:08:11.811Z,102477.97
2022-10-06T08:10:41.820Z,102474.72
2022-10-06T08:13:14.277Z,102476.72
2022-10-06T08:15:44.113Z,102491.28
2022-10-06T08:18:33.642Z,102486.19
2022-10-06T08:21:03.776Z,102497.81
2022-10-06T08:23:40.725Z,102495.38
2022-10-06T08:26:11.054Z,102502.69
2022-10-06T08:29:18.488Z,102501.09
2022-10-06T08:31:38.630Z,102509.97
2022-10-06T08:34:12.010Z,102515.53
2022-10-06T08:36:56.958Z,102527.28
2022-10-06T08:39:34.050Z,102521.44
2022-10-06T08:42:04.529Z,102522.78
2022-10-06T08:44:43.060Z,102531.19
2022-10-06T08:47:19.191Z,102530.56
2022-10-06T08:49:51.243Z,102540.78
2022-10-06T08:52:34.530Z,102537.63
2022-10-06T08:55:18.309Z,102536.06
2022-10-06T08:58:13.539Z,102536.97
2022-10-06T09:00:46.055Z,102543.28
2022-10-06T09:03:23.214Z,102544.38
2022-10-06T09:05:55.969Z,102540.06
2022-10-06T09:08:41.002Z,102544.56
2022-10-06T09:11:25.232Z,102548.19
2022-10-06T09:14:00.123Z,102563.31
2022-10-06T09:16:42.296Z,102559.13
2022-10-06T09:19:17.781Z,102560.16
2022-10-06T09:21:51.849Z,102570.81
2022-10-06T09:24:32.888Z,102573.53
2022-10-06T09:27:03.602Z,102578.84
2022-10-06T09:29:33.987Z,102581.63
2022-10-06T09:32:06.935Z,102586.16
2022-10-06T09:34:42.306Z,102574.69
2022-10-06T09:37:13.937Z,102584.50
2022-10-06T09:39:45.349Z,102583.81
2022-10-06T09:42:18.781Z,102592.66
2022-10-06T09:45:01.502Z,102592.81
2022-10-06T09:47:45.430Z,102600.97
2022-10-06T09:50:22.020Z,102597.69
2022-10-06T09:53:22.112Z,102596.16
2022-10-06T09:55:55.456Z,102598.09
2022-10-06T09:58:31.597Z,102615.16
2022-10-06T10:01:03.971Z,102599.56
2022-10-06T10:04:18.702Z,102605.94
2022-10-06T10:06:43.587Z,102612.09
2022-10-06T10:09:22.929Z,102616.50
2022-10-06T10:12:33.878Z,102614.69
2022-10-06T10:15:06.397Z,102615.47
2022-10-06T10:17:42.162Z,102611.00
2022-10-06T10:20:34.393Z,102618.19
2022-10-06T10:23:08.273Z,102628.78
2022-10-06T10:26:08.268Z,102634.22
2022-10-06T10:29:12.400Z,102628.97
2022-10-06T10:31:56.419Z,102637.84
2022-10-06T10:34:45.154Z,102638.69
2022-10-06T10:37:22.077Z,102635.97
2022-10-06T10:39:57.745Z,102647.50
2022-10-06T10:42:33.234Z,102644.91
2022-10-06T10:45:04.577Z,102646.06
2022-10-06T10:47:39.500Z,102641.84
2022-10-06T10:50:22.539Z,102644.72
2022-10-06T10:52:58.959Z,102652.88
2022-10-06T10:55:32.699Z,102651.31
2022-10-06T10:58:07.515Z,102653.28
2022-10-06T11:00:44.314Z,102653.53
2022-10-06T11:03:14.143Z,102654.63
2022-10-06T11:06:07.436Z,102663.47
2022-10-06T11:08:50.980Z,102659.94
2022-10-06T11:11:30.007Z,102670.41
2022-10-06T11:14:04.439Z,102665.09
2022-10-06T11:16:44.454Z,102667.94
2022-10-06T11:19:24.641Z,102664.66
2022-10-06T11:22:01.969Z,102665.75
2022-10-06T11:24:44.857Z,102663.25
2022-10-06T11:27:26.686Z,102658.91
2022-10-06T11:30:08.571Z,102664.47
2022-10-06T11:32:50.201Z,102668.09
2022-10-06T11:35:24.010Z,102672.56
2022-10-06T11:38:01.094Z,102664.59
2022-10-06T11:40:44.169Z,102670.03
2022-10-06T11:43:23.229Z,102665.72
2022-10-06T11:46:04.151Z,102664.06
2022-10-06T11:48:35.471Z,102658.63
2022-10-06T11:51:32.553Z,102676.44
2022-10-06T11:54:02.574Z,102657.69
2022-10-06T11:56:44.071Z,102670.16
2022-10-06T11:59:31.483Z,102658.63
2022-10-06T12:02:04.006Z,102671.84
2022-10-06T12:04:33.847Z,102671.78
2022-10-06T12:07:05.448Z,102676.16
2022-10-06T12:09:52.332Z,102672.63
2022-10-06T12:13:13.862Z,102678.94
2022-10-06T12:19:16.988Z,102680.72
2022-10-06T12:21:57.452Z,102673.44
2022-10-06T12:24:41.501Z,102674.41
2022-10-06T12:27:33.383Z,102672.81
2022-10-06T12:30:09.372Z,102658.91
2022-10-06T12:32:55.081Z,102667.94
2022-10-06T12:35:33.038Z,102661.94
2022-10-06T12:38:05.557Z,102669.19
2022-10-06T12:40:55.720Z,102662.31
2022-10-06T12:43:55.579Z,102666.94
2022-10-06T12:46:49.531Z,102665.34
2022-10-06T12:49:49.120Z,102669.88
2022-10-06T12:52:35.467Z,102668.06
2022-10-06T12:55:32.429Z,102663.63
2022-10-06T12:58:02.410Z,102668.78
2022-10-06T13:00:37.399Z,102667.88
2022-10-06T13:03:18.238Z,102672.16
2022-10-06T13:05:53.684Z,102672.94
2022-10-06T13:08:29.193Z,102672.94
2022-10-06T13:11:14.577Z,102671.94
2022-10-06T13:13:51.179Z,102678.06
2022-10-06T13:16:22.942Z,102676.22
2022-10-06T13:18:58.133Z,102670.19
2022-10-06T13:21:29.123Z,102671.97
2022-10-06T13:23:59.676Z,102668.59
2022-10-06T13:26:34.778Z,102666.84
2022-10-06T13:29:05.455Z,102672.13
2022-10-06T13:31:38.209Z,102671.09
2022-10-06T13:34:14.809Z,102677.25
2022-10-06T13:36:46.959Z,102679.75
2022-10-06T13:39:18.847Z,102677.03
2022-10-06T13:41:52.402Z,102675.28
2022-10-06T13:44:35.941Z,102673.53
2022-10-06T13:47:08.900Z,102668.94
2022-10-06T13:49:49.188Z,102670.59
2022-10-06T13:52:22.050Z,102674.88
2022-10-06T13:54:56.012Z,102680.16
2022-10-06T13:57:39.902Z,102686.41
2022-10-06T14:00:20.212Z,102683.75
2022-10-06T14:02:51.926Z,102679.41
2022-10-06T14:05:33.382Z,102673.25
2022-10-06T14:08:04.936Z,102690.03
2022-10-06T14:10:41.462Z,102695.34
2022-10-06T14:13:17.019Z,102685.50
2022-10-06T14:15:50.462Z,102698.63
2022-10-06T14:18:27.100Z,102682.56
2022-10-06T14:21:00.223Z,102684.25
2022-10-06T14:23:46.234Z,102689.59
2022-10-06T14:26:17.525Z,102668.31
2022-10-06T14:28:52.988Z,102683.25
2022-10-06T14:31:23.746Z,102683.25
2022-10-06T14:33:55.031Z,102676.19
2022-10-06T14:36:29.234Z,102683.34
2022-10-06T14:39:00.483Z,102678.91
2022-10-06T14:41:32.912Z,102677.16
2022-10-06T14:44:06.171Z,102685.84
2022-10-06T14:46:36.755Z,102682.25
2022-10-06T14:49:08.522Z,102692.88
2022-10-06T14:51:44.473Z,102691.94
2022-10-06T14:54:14.486Z,102690.88
2022-10-06T14:56:44.928Z,102683.72
2022-10-06T14:59:17.337Z,102689.75
2022-10-06T15:01:47.918Z,102689.72
2022-10-06T15:04:19.814Z,102690.44
2022-10-06T15:07:04.592Z,102694.78
2022-10-06T15:09:35.890Z,102681.41
2022-10-06T15:12:06.450Z,102685.69
2022-10-06T15:14:39.820Z,102682.97
2022-10-06T15:17:09.851Z,102682.97
2022-10-06T15:19:40.470Z,102681.19
2022-10-06T15:22:12.783Z,102680.25
2022-10-06T15:24:43.342Z,102686.34
2022-10-06T15:27:25.465Z,102682.75
2022-10-06T15:29:56.220Z,102676.56
2022-10-06T15:32:26.056Z,102670.38
2022-10-06T15:34:55.779Z,102667.59
2022-10-06T15:37:28.166Z,102675.44
2022-10-06T15:39:58.149Z,102669.97
2022-10-06T15:42:28.035Z,102673.34
2022-10-06T15:44:57.842Z,102675.00
2022-10-06T15:47:28.128Z,102673.16
2022-10-06T15:49:57.947Z,102673.06
2022-10-06T15:52:34.114Z,102666.88
2022-10-06T15:55:03.878Z,102669.47
2022-10-06T15:57:33.707Z,102666.69
2022-10-06T16:00:03.481Z,102664.88
2022-10-06T16:02:35.830Z,102664.75
2022-10-06T16:05:45.089Z,102658.47
2022-10-06T16:08:17.495Z,102667.22
2022-10-06T16:10:52.507Z,102669.81
2022-10-06T16:13:22.376Z,102667.03
2022-10-06T16:15:55.858Z,102672.31
2022-10-06T16:18:25.892Z,102672.16
2022-10-06T16:20:56.721Z,102663.31
2022-10-06T16:23:29.104Z,102654.38
2022-10-06T16:26:03.871Z,102665.84
2022-10-06T16:28:33.956Z,102663.97
2022-10-06T16:31:03.865Z,102670.88
2022-10-06T16:33:33.630Z,102661.00
2022-10-06T16:36:03.389Z,102669.53
2022-10-06T16:38:35.718Z,102671.09
2022-10-06T16:41:05.682Z,102678.88
2022-10-06T16:43:37.964Z,102671.69
2022-10-06T16:46:09.985Z,102676.88
2022-10-06T16:48:41.384Z,102681.16
2022-10-06T16:51:13.184Z,102682.84
2022-10-06T16:53:46.743Z,102680.94
2022-10-06T16:56:20.504Z,102678.06
2022-10-06T16:58:53.495Z,102684.97
2022-10-06T17:01:25.667Z,102696.31
2022-10-06T17:04:00.755Z,102694.34
2022-10-06T17:06:30.580Z,102693.31
2022-10-06T17:09:03.159Z,102694.09
2022-10-06T17:11:33.002Z,102694.72
2022-10-06T17:14:02.732Z,102692.66
2022-10-06T17:16:35.088Z,102698.56
2022-10-06T17:19:05.411Z,102701.94
2022-10-06T17:21:57.378Z,102697.34
2022-10-06T17:24:28.955Z,102699.84
2022-10-06T17:27:00.518Z,102702.28
2022-10-06T17:29:30.473Z,102695.97
2022-10-06T17:32:01.635Z,102697.53
2022-10-06T17:34:33.161Z,102695.53
2022-10-06T17:37:04.704Z,102705.16
2022-10-06T17:39:37.076Z,102699.81
2022-10-06T17:42:07.361Z,102706.00
2022-10-06T17:44:37.057Z,102701.47
2022-10-06T17:47:07.196Z,102704.78
2022-10-06T17:49:37.260Z,102704.66
2022-10-06T17:52:07.520Z,102700.97
2022-10-06T17:54:41.602Z,102701.75
2022-10-06T17:57:11.358Z,102705.13
2022-10-06T17:59:41.070Z,102707.63
2022-10-06T18:02:13.622Z,102718.00
2022-10-06T18:04:43.390Z,102716.06
2022-10-06T18:07:13.166Z,102712.34
2022-10-06T18:10:05.912Z,102703.34
2022-10-06T18:12:36.350Z,102705.84
2022-10-06T18:15:06.191Z,102701.31
2022-10-06T18:17:36.101Z,102699.44
2022-10-06T18:20:06.509Z,102701.00
2022-10-06T18:22:36.245Z,102702.53
2022-10-06T18:25:10.002Z,102703.28
2022-10-06T18:27:40.455Z,102698.75
2022-10-06T18:30:12.186Z,102690.69
2022-10-06T18:34:41.658Z,102693.25
2022-10-06T18:38:21.276Z,102700.03
2022-10-06T18:41:00.654Z,102692.94
2022-10-06T18:43:30.862Z,102699.00
2022-10-06T18:46:17.111Z,102703.41
2022-10-06T18:48:58.979Z,102695.31
2022-10-06T18:51:32.573Z,102690.84
2022-10-06T18:54:05.462Z,102699.69
2022-10-06T18:56:39.335Z,102695.22
2022-10-06T18:59:12.395Z,102700.53
2022-10-06T19:01:44.686Z,102697.03
2022-10-06T19:04:16.048Z,102690.84
2022-10-06T19:06:49.392Z,102690.84
2022-10-06T19:09:21.046Z,102696.13
2022-10-06T19:11:56.694Z,102692.66
2022-10-06T19:14:29.909Z,102694.38
2022-10-06T19:17:02.277Z,102687.28
2022-10-06T19:19:34.102Z,102693.34
2022-10-06T19:22:06.197Z,102700.38
2022-10-06T19:24:38.635Z,102703.84
2022-10-06T19:27:15.234Z,102698.41
2022-10-06T19:29:47.033Z,102696.50
2022-10-06T19:32:19.313Z,102696.38
2022-10-06T19:34:49.756Z,102689.94
2022-10-06T19:37:19.619Z,102685.41
2022-10-06T19:39:50.589Z,102690.56
2022-10-06T19:42:35.860Z,102679.00
2022-10-06T19:45:06.558Z,102683.28
2022-10-06T19:47:36.341Z,102693.72
2022-10-06T19:50:12.084Z,102691.00
2022-10-06T19:52:42.152Z,102687.28
2022-10-06T19:55:12.104Z,102682.81
2022-10-06T19:57:44.797Z,102681.81
2022-10-06T20:00:16.329Z,102677.28
2022-10-06T20:02:47.638Z,102677.22
2022-10-06T20:05:19.265Z,102677.16
2022-10-06T20:07:50.104Z,102675.25
2022-10-06T20:10:20.054Z,102675.19
2022-10-06T20:12:52.669Z,102674.25
2022-10-06T20:15:22.732Z,102682.94
2022-10-06T20:17:52.416Z,102688.19
2022-10-06T20:20:22.188Z,102690.66
2022-10-06T20:22:54.045Z,102690.50
2022-10-06T20:25:23.820Z,102690.50
2022-10-06T20:27:56.237Z,102690.44
2022-10-06T20:30:26.002Z,102690.34
2022-10-06T20:32:55.785Z,102686.72
2022-10-06T20:35:25.555Z,102689.28
2022-10-06T20:37:55.289Z,102682.88
2022-10-06T20:40:37.410Z,102689.69
2022-10-06T20:43:09.812Z,102687.00
2022-10-06T20:45:39.562Z,102680.63
2022-10-06T20:48:09.840Z,102678.84
2022-10-06T20:50:39.562Z,102683.13
2022-10-06T20:53:09.769Z,102671.56
2022-10-06T20:55:39.823Z,102677.56
2022-10-06T20:58:12.212Z,102663.34
2022-10-06T21:00:42.094Z,102673.88
2022-10-06T21:03:12.000Z,102668.47
2022-10-06T21:05:42.065Z,102660.50
2022-10-06T21:08:12.115Z,102654.22
2022-10-06T21:10:41.871Z,102654.13
2022-10-06T21:13:14.466Z,102656.78
2022-10-06T21:15:48.148Z,102647.78
2022-10-06T21:18:18.025Z,102645.06
2022-10-06T21:20:57.001Z,102636.13
2022-10-06T21:23:26.886Z,102634.25
2022-10-06T21:25:56.768Z,102642.16
2022-10-06T21:28:29.228Z,102631.59
2022-10-06T21:31:04.521Z,102635.09
2022-10-06T21:33:41.546Z,102630.59
2022-10-06T21:36:15.621Z,102626.25
2022-10-06T21:38:47.943Z,102621.78
2022-10-06T21:41:37.251Z,102625.28
2022-10-06T21:44:11.207Z,102624.38
2022-10-06T21:46:42.565Z,102621.63
2022-10-06T21:49:14.189Z,102620.63
2022-10-06T21:51:45.801Z,102613.56
2022-10-06T21:54:16.554Z,102603.81
2022-10-06T21:56:46.743Z,102598.47
2022-10-06T21:59:19.207Z,102605.47
2022-10-06T22:01:50.476Z,102590.44
2022-10-06T22:04:20.669Z,102590.38
2022-10-06T22:06:51.856Z,102591.28
2022-10-06T22:09:23.591Z,102588.56
2022-10-06T22:11:53.389Z,102583.22
2022-10-06T22:14:25.796Z,102584.09
2022-10-06T22:16:55.517Z,102580.47
2022-10-06T22:19:25.313Z,102575.19
2022-10-06T22:21:55.056Z,102580.47
2022-10-06T22:24:24.911Z,102572.47
2022-10-06T22:26:54.690Z,102575.09
2022-10-06T22:29:27.154Z,102574.19
2022-10-06T22:31:58.722Z,102574.13
2022-10-06T22:34:29.908Z,102564.38
2022-10-06T22:37:00.791Z,102568.78
2022-10-06T22:39:30.538Z,102559.84
2022-10-06T22:42:00.251Z,102559.94
2022-10-06T22:44:32.624Z,102548.50
2022-10-06T22:47:02.413Z,102556.41
2022-10-06T22:49:32.317Z,102549.22
2022-10-06T22:52:02.087Z,102550.94
2022-10-06T22:54:32.454Z,102554.41
2022-10-06T22:57:02.188Z,102555.16
2022-10-06T22:59:34.518Z,102548.91
2022-10-06T23:02:04.264Z,102546.16
2022-10-06T23:04:34.064Z,102544.38
2022-10-06T23:07:03.862Z,102539.81
2022-10-06T23:09:33.653Z,102533.66
2022-10-06T23:12:03.412Z,102538.78
2022-10-06T23:14:35.736Z,102537.78
2022-10-06T23:17:05.456Z,102529.78
2022-10-06T23:19:35.199Z,102526.13
2022-10-06T23:22:05.144Z,102521.59
2022-10-06T23:24:34.889Z,102522.53
2022-10-06T23:27:07.267Z,102520.72
2022-10-06T23:29:39.615Z,102510.91
2022-10-06T23:32:09.345Z,102516.13
2022-10-06T23:34:39.110Z,102517.81
2022-10-06T23:37:08.834Z,102515.13
2022-10-06T23:39:38.649Z,102508.00
2022-10-06T23:42:09.791Z,102506.22
2022-10-06T23:44:42.735Z,102504.41
2022-10-06T23:47:12.469Z,102502.56
2022-10-06T23:49:43.716Z,102506.06
2022-10-06T23:52:13.482Z,102498.94
2022-10-06T23:54:43.287Z,102505.97
2022-10-06T23:57:13.008Z,102507.59
2022-10-06T23:59:45.343Z,102499.63
